sensor_id;sensor_type;location;lat;lon;timestamp;temperature;humidity
24636;DHT22;12772;49.794;10.024;2022-12-10T00:03:24;4.00;51.90
24636;DHT22;12772;49.794;10.024;2022-12-10T00:07:26;4.40;52.30
24636;DHT22;12772;49.794;10.024;2022-12-10T00:11:28;4.40;52.30
24636;DHT22;12772;49.794;10.024;2022-12-10T00:15:30;4.30;52.20
24636;DHT22;12772;49.794;10.024;2022-12-10T00:19:32;4.20;52.20
24636;DHT22;12772;49.794;10.024;2022-12-10T00:23:35;4.40;52.30
24636;DHT22;12772;49.794;10.024;2022-12-10T00:27:37;4.40;52.30
24636;DHT22;12772;49.794;10.024;2022-12-10T00:31:39;4.30;52.20
24636;DHT22;12772;49.794;10.024;2022-12-10T00:35:42;4.50;52.40
24636;DHT22;12772;49.794;10.024;2022-12-10T00:39:44;4.40;52.30
24636;DHT22;12772;49.794;10.024;2022-12-10T00:43:46;4.40;52.30
24636;DHT22;12772;49.794;10.024;2022-12-10T00:47:48;4.40;52.30
24636;DHT22;12772;49.794;10.024;2022-12-10T00:51:50;4.00;51.90
24636;DHT22;12772;49.794;10.024;2022-12-10T00:55:53;4.20;52.10
24636;DHT22;12772;49.794;10.024;2022-12-10T00:59:55;4.20;52.10
24636;DHT22;12772;49.794;10.024;2022-12-10T01:04:00;4.40;52.30
24636;DHT22;12772;49.794;10.024;2022-12-10T01:08:02;4.40;52.30
24636;DHT22;12772;49.794;10.024;2022-12-10T01:12:04;4.20;52.10
24636;DHT22;12772;49.794;10.024;2022-12-10T01:16:08;4.10;52.00
24636;DHT22;12772;49.794;10.024;2022-12-10T01:20:11;4.10;52.00
24636;DHT22;12772;49.794;10.024;2022-12-10T01:24:13;4.10;52.00
24636;DHT22;12772;49.794;10.024;2022-12-10T01:28:15;3.80;51.70
24636;DHT22;12772;49.794;10.024;2022-12-10T01:32:17;4.10;52.00
24636;DHT22;12772;49.794;10.024;2022-12-10T01:36:24;4.10;52.00
24636;DHT22;12772;49.794;10.024;2022-12-10T01:40:27;4.00;51.90
24636;DHT22;12772;49.794;10.024;2022-12-10T01:48:31;4.10;52.10
24636;DHT22;12772;49.794;10.024;2022-12-10T01:52:34;3.70;51.60
24636;DHT22;12772;49.794;10.024;2022-12-10T01:56:40;4.20;52.10
24636;DHT22;12772;49.794;10.024;2022-12-10T02:05:12;4.40;52.30
24636;DHT22;12772;49.794;10.024;2022-12-10T02:10:19;4.30;52.20
24636;DHT22;12772;49.794;10.024;2022-12-10T02:13:56;4.30;52.20
24636;DHT22;12772;49.794;10.024;2022-12-10T02:18:08;4.40;52.30
24636;DHT22;12772;49.794;10.024;2022-12-10T02:22:12;4.10;52.00
24636;DHT22;12772;49.794;10.024;2022-12-10T02:30:31;3.90;51.80
24636;DHT22;12772;49.794;10.024;2022-12-10T02:34:38;4.20;52.10
24636;DHT22;12772;49.794;10.024;2022-12-10T02:38:42;3.70;51.60
24636;DHT22;12772;49.794;10.024;2022-12-10T02:42:47;3.90;52.50
24636;DHT22;12772;49.794;10.024;2022-12-10T02:46:52;4.00;52.60
24636;DHT22;12772;49.794;10.024;2022-12-10T02:50:56;3.80;51.70
24636;DHT22;12772;49.794;10.024;2022-12-10T02:54:58;3.40;51.30
24636;DHT22;12772;49.794;10.024;2022-12-10T02:59:16;3.80;51.70
24636;DHT22;12772;49.794;10.024;2022-12-10T03:03:31;3.70;51.60
24636;DHT22;12772;49.794;10.024;2022-12-10T03:07:47;3.60;51.40
24636;DHT22;12772;49.794;10.024;2022-12-10T03:12:02;3.70;51.60
24636;DHT22;12772;49.794;10.024;2022-12-10T03:16:09;3.80;51.70
24636;DHT22;12772;49.794;10.024;2022-12-10T03:20:13;3.30;51.20
24636;DHT22;12772;49.794;10.024;2022-12-10T03:24:17;3.30;51.10
24636;DHT22;12772;49.794;10.024;2022-12-10T03:28:21;3.70;51.50
24636;DHT22;12772;49.794;10.024;2022-12-10T03:32:27;3.20;50.80
24636;DHT22;12772;49.794;10.024;2022-12-10T03:36:30;3.70;51.10
24636;DHT22;12772;49.794;10.024;2022-12-10T03:40:33;3.60;50.80
24636;DHT22;12772;49.794;10.024;2022-12-10T03:44:37;3.50;50.30
24636;DHT22;12772;49.794;10.024;2022-12-10T03:48:40;3.40;50.60
24636;DHT22;12772;49.794;10.024;2022-12-10T03:52:42;3.40;51.20
24636;DHT22;12772;49.794;10.024;2022-12-10T03:56:45;3.40;51.30
24636;DHT22;12772;49.794;10.024;2022-12-10T04:00:47;2.60;51.10
24636;DHT22;12772;49.794;10.024;2022-12-10T04:04:49;3.30;51.10
24636;DHT22;12772;49.794;10.024;2022-12-10T04:08:52;3.30;51.20
24636;DHT22;12772;49.794;10.024;2022-12-10T04:12:54;3.20;51.00
24636;DHT22;12772;49.794;10.024;2022-12-10T04:17:10;2.80;50.50
24636;DHT22;12772;49.794;10.024;2022-12-10T04:21:12;3.10;50.60
24636;DHT22;12772;49.794;10.024;2022-12-10T04:25:32;3.10;50.90
24636;DHT22;12772;49.794;10.024;2022-12-10T04:29:52;2.90;50.70
24636;DHT22;12772;49.794;10.024;2022-12-10T04:33:55;3.20;51.00
24636;DHT22;12772;49.794;10.024;2022-12-10T04:37:58;2.90;50.70
24636;DHT22;12772;49.794;10.024;2022-12-10T04:42:00;2.70;50.80
24636;DHT22;12772;49.794;10.024;2022-12-10T04:46:02;2.90;50.70
24636;DHT22;12772;49.794;10.024;2022-12-10T04:50:05;2.80;50.60
24636;DHT22;12772;49.794;10.024;2022-12-10T04:54:07;2.80;50.60
24636;DHT22;12772;49.794;10.024;2022-12-10T04:58:10;2.30;50.20
24636;DHT22;12772;49.794;10.024;2022-12-10T05:02:12;2.90;50.80
24636;DHT22;12772;49.794;10.024;2022-12-10T05:06:15;2.90;50.80
24636;DHT22;12772;49.794;10.024;2022-12-10T05:10:18;2.70;50.50
24636;DHT22;12772;49.794;10.024;2022-12-10T05:14:20;2.70;50.60
24636;DHT22;12772;49.794;10.024;2022-12-10T05:18:23;2.50;50.40
24636;DHT22;12772;49.794;10.024;2022-12-10T05:22:25;2.80;50.70
24636;DHT22;12772;49.794;10.024;2022-12-10T05:26:44;2.80;50.70
24636;DHT22;12772;49.794;10.024;2022-12-10T05:30:46;3.00;50.80
24636;DHT22;12772;49.794;10.024;2022-12-10T05:34:48;3.10;51.00
24636;DHT22;12772;49.794;10.024;2022-12-10T05:38:51;3.00;50.90
24636;DHT22;12772;49.794;10.024;2022-12-10T05:42:53;3.10;51.00
24636;DHT22;12772;49.794;10.024;2022-12-10T05:46:55;2.40;50.30
24636;DHT22;12772;49.794;10.024;2022-12-10T05:50:57;3.10;50.90
24636;DHT22;12772;49.794;10.024;2022-12-10T05:54:59;3.10;51.00
24636;DHT22;12772;49.794;10.024;2022-12-10T05:59:03;3.20;51.10
24636;DHT22;12772;49.794;10.024;2022-12-10T06:03:05;3.30;51.20
24636;DHT22;12772;49.794;10.024;2022-12-10T06:07:07;3.10;51.00
24636;DHT22;12772;49.794;10.024;2022-12-10T06:11:10;2.80;50.70
24636;DHT22;12772;49.794;10.024;2022-12-10T06:15:12;3.20;51.10
24636;DHT22;12772;49.794;10.024;2022-12-10T06:19:14;3.20;51.10
24636;DHT22;12772;49.794;10.024;2022-12-10T06:23:16;2.90;50.80
24636;DHT22;12772;49.794;10.024;2022-12-10T06:27:18;3.10;51.00
24636;DHT22;12772;49.794;10.024;2022-12-10T06:31:21;2.70;50.60
24636;DHT22;12772;49.794;10.024;2022-12-10T06:35:23;3.20;51.10
24636;DHT22;12772;49.794;10.024;2022-12-10T06:39:25;3.30;51.30
24636;DHT22;12772;49.794;10.024;2022-12-10T06:43:30;3.00;51.10
24636;DHT22;12772;49.794;10.024;2022-12-10T06:47:32;3.20;52.10
24636;DHT22;12772;49.794;10.024;2022-12-10T06:51:34;3.20;51.10
24636;DHT22;12772;49.794;10.024;2022-12-10T06:55:39;3.00;51.00
24636;DHT22;12772;49.794;10.024;2022-12-10T06:59:41;3.10;51.40
24636;DHT22;12772;49.794;10.024;2022-12-10T07:03:43;2.80;51.20
24636;DHT22;12772;49.794;10.024;2022-12-10T07:07:45;2.70;51.10
24636;DHT22;12772;49.794;10.024;2022-12-10T07:11:47;3.20;51.70
24636;DHT22;12772;49.794;10.024;2022-12-10T07:15:49;3.00;51.50
24636;DHT22;12772;49.794;10.024;2022-12-10T07:19:51;2.70;51.20
24636;DHT22;12772;49.794;10.024;2022-12-10T07:23:55;3.20;51.80
24636;DHT22;12772;49.794;10.024;2022-12-10T07:27:58;3.10;51.80
24636;DHT22;12772;49.794;10.024;2022-12-10T07:32:01;3.10;52.10
24636;DHT22;12772;49.794;10.024;2022-12-10T07:36:08;3.30;52.40
24636;DHT22;12772;49.794;10.024;2022-12-10T07:40:10;3.30;52.40
24636;DHT22;12772;49.794;10.024;2022-12-10T07:44:13;3.40;52.70
24636;DHT22;12772;49.794;10.024;2022-12-10T07:48:15;3.10;52.40
24636;DHT22;12772;49.794;10.024;2022-12-10T07:52:17;3.20;52.50
24636;DHT22;12772;49.794;10.024;2022-12-10T07:56:19;3.00;52.50
24636;DHT22;12772;49.794;10.024;2022-12-10T08:00:22;3.50;53.00
24636;DHT22;12772;49.794;10.024;2022-12-10T08:04:24;3.00;52.70
24636;DHT22;12772;49.794;10.024;2022-12-10T08:08:29;3.00;52.70
24636;DHT22;12772;49.794;10.024;2022-12-10T08:12:31;3.30;53.80
24636;DHT22;12772;49.794;10.024;2022-12-10T08:16:33;3.40;53.00
24636;DHT22;12772;49.794;10.024;2022-12-10T08:20:35;2.90;52.60
24636;DHT22;12772;49.794;10.024;2022-12-10T08:24:37;3.40;53.20
24636;DHT22;12772;49.794;10.024;2022-12-10T08:28:39;3.10;52.80
24636;DHT22;12772;49.794;10.024;2022-12-10T08:32:41;3.30;52.90
24636;DHT22;12772;49.794;10.024;2022-12-10T08:36:44;2.90;52.50
24636;DHT22;12772;49.794;10.024;2022-12-10T08:40:46;3.40;53.00
24636;DHT22;12772;49.794;10.024;2022-12-10T08:44:48;3.70;53.20
24636;DHT22;12772;49.794;10.024;2022-12-10T08:48:51;3.50;52.90
24636;DHT22;12772;49.794;10.024;2022-12-10T08:52:53;3.70;53.00
24636;DHT22;12772;49.794;10.024;2022-12-10T08:56:55;3.10;52.20
24636;DHT22;12772;49.794;10.024;2022-12-10T09:00:57;3.70;53.00
24636;DHT22;12772;49.794;10.024;2022-12-10T09:04:59;3.60;52.90
24636;DHT22;12772;49.794;10.024;2022-12-10T09:09:01;3.50;53.00
24636;DHT22;12772;49.794;10.024;2022-12-10T09:13:05;3.40;53.10
24636;DHT22;12772;49.794;10.024;2022-12-10T09:17:07;2.90;52.80
24636;DHT22;12772;49.794;10.024;2022-12-10T09:21:12;3.40;53.20
24636;DHT22;12772;49.794;10.024;2022-12-10T09:25:14;3.30;53.40
24636;DHT22;12772;49.794;10.024;2022-12-10T09:29:17;3.60;53.80
24636;DHT22;12772;49.794;10.024;2022-12-10T09:33:19;3.80;54.00
24636;DHT22;12772;49.794;10.024;2022-12-10T09:37:21;3.80;54.30
24636;DHT22;12772;49.794;10.024;2022-12-10T09:46:02;3.80;54.20
24636;DHT22;12772;49.794;10.024;2022-12-10T09:50:23;4.00;54.60
24636;DHT22;12772;49.794;10.024;2022-12-10T09:54:33;4.10;54.80
24636;DHT22;12772;49.794;10.024;2022-12-10T09:58:36;3.70;54.30
24636;DHT22;12772;49.794;10.024;2022-12-10T10:02:39;4.40;54.60
24636;DHT22;12772;49.794;10.024;2022-12-10T10:06:41;4.00;53.70
24636;DHT22;12772;49.794;10.024;2022-12-10T10:10:45;4.60;54.30
24636;DHT22;12772;49.794;10.024;2022-12-10T10:14:47;4.80;53.70
24636;DHT22;12772;49.794;10.024;2022-12-10T10:19:02;4.80;52.80
24636;DHT22;12772;49.794;10.024;2022-12-10T10:23:05;4.90;52.80
24636;DHT22;12772;49.794;10.024;2022-12-10T10:27:16;5.10;53.00
24636;DHT22;12772;49.794;10.024;2022-12-10T10:31:23;5.30;53.20
24636;DHT22;12772;49.794;10.024;2022-12-10T10:35:31;5.00;52.90
24636;DHT22;12772;49.794;10.024;2022-12-10T10:39:34;5.30;53.20
24636;DHT22;12772;49.794;10.024;2022-12-10T10:43:42;5.10;51.80
24636;DHT22;12772;49.794;10.024;2022-12-10T10:47:45;5.40;51.80
24636;DHT22;12772;49.794;10.024;2022-12-10T10:51:47;5.70;51.80
24636;DHT22;12772;49.794;10.024;2022-12-10T10:55:50;5.50;51.10
24636;DHT22;12772;49.794;10.024;2022-12-10T10:59:56;5.20;50.30
24636;DHT22;12772;49.794;10.024;2022-12-10T11:04:01;5.50;50.60
24636;DHT22;12772;49.794;10.024;2022-12-10T11:08:06;4.70;49.90
24636;DHT22;12772;49.794;10.024;2022-12-10T11:16:32;5.10;51.40
24636;DHT22;12772;49.794;10.024;2022-12-10T11:20:34;5.30;51.50
24636;DHT22;12772;49.794;10.024;2022-12-10T11:24:36;5.40;51.30
24636;DHT22;12772;49.794;10.024;2022-12-10T11:50:19;5.70;51.20
24636;DHT22;12772;49.794;10.024;2022-12-10T11:59:24;5.40;50.10
24636;DHT22;12772;49.794;10.024;2022-12-10T12:03:55;5.30;50.30
24636;DHT22;12772;49.794;10.024;2022-12-10T12:16:35;5.60;50.60
24636;DHT22;12772;49.794;10.024;2022-12-10T12:21:03;5.50;50.10
24636;DHT22;12772;49.794;10.024;2022-12-10T12:25:21;5.40;50.20
24636;DHT22;12772;49.794;10.024;2022-12-10T12:29:37;5.60;50.60
24636;DHT22;12772;49.794;10.024;2022-12-10T12:38:06;5.50;49.90
24636;DHT22;12772;49.794;10.024;2022-12-10T12:42:31;5.50;50.10
24636;DHT22;12772;49.794;10.024;2022-12-10T12:46:41;5.60;50.20
24636;DHT22;12772;49.794;10.024;2022-12-10T12:50:51;5.50;50.40
24636;DHT22;12772;49.794;10.024;2022-12-10T12:54:59;5.50;50.60
24636;DHT22;12772;49.794;10.024;2022-12-10T13:03:40;5.30;51.20
24636;DHT22;12772;49.794;10.024;2022-12-10T13:07:42;5.00;51.40
24636;DHT22;12772;49.794;10.024;2022-12-10T13:16:34;5.10;52.30
24636;DHT22;12772;49.794;10.024;2022-12-10T13:20:49;5.00;52.30
24636;DHT22;12772;49.794;10.024;2022-12-10T13:25:16;5.20;52.50
24636;DHT22;12772;49.794;10.024;2022-12-10T13:29:26;5.20;52.30
24636;DHT22;12772;49.794;10.024;2022-12-10T13:38:17;4.90;51.90
24636;DHT22;12772;49.794;10.024;2022-12-10T13:42:28;5.10;52.30
24636;DHT22;12772;49.794;10.024;2022-12-10T13:46:52;4.90;52.00
24636;DHT22;12772;49.794;10.024;2022-12-10T13:51:04;4.90;52.00
24636;DHT22;12772;49.794;10.024;2022-12-10T13:55:22;4.90;52.10
24636;DHT22;12772;49.794;10.024;2022-12-10T13:59:29;4.90;51.60
24636;DHT22;12772;49.794;10.024;2022-12-10T14:03:42;4.50;51.10
24636;DHT22;12772;49.794;10.024;2022-12-10T14:07:50;4.50;51.10
24636;DHT22;12772;49.794;10.024;2022-12-10T14:11:57;4.90;51.30
24636;DHT22;12772;49.794;10.024;2022-12-10T14:16:01;4.40;50.80
24636;DHT22;12772;49.794;10.024;2022-12-10T14:20:07;4.40;51.00
24636;DHT22;12772;49.794;10.024;2022-12-10T14:24:44;4.90;51.50
24636;DHT22;12772;49.794;10.024;2022-12-10T14:28:53;4.90;51.20
24636;DHT22;12772;49.794;10.024;2022-12-10T14:32:58;5.00;51.00
24636;DHT22;12772;49.794;10.024;2022-12-10T14:37:03;4.90;51.00
24636;DHT22;12772;49.794;10.024;2022-12-10T14:41:06;4.90;51.10
24636;DHT22;12772;49.794;10.024;2022-12-10T14:45:13;5.00;51.30
24636;DHT22;12772;49.794;10.024;2022-12-10T14:49:20;4.80;51.00
24636;DHT22;12772;49.794;10.024;2022-12-10T14:53:25;4.60;50.80
24636;DHT22;12772;49.794;10.024;2022-12-10T14:57:34;4.90;51.00
24636;DHT22;12772;49.794;10.024;2022-12-10T15:01:40;4.30;50.80
24636;DHT22;12772;49.794;10.024;2022-12-10T15:05:43;4.40;51.60
24636;DHT22;12772;49.794;10.024;2022-12-10T15:09:55;4.30;52.20
24636;DHT22;12772;49.794;10.024;2022-12-10T15:13:59;4.10;52.00
24636;DHT22;12772;49.794;10.024;2022-12-10T15:22:21;4.50;52.60
24636;DHT22;12772;49.794;10.024;2022-12-10T15:26:27;4.30;53.10
24636;DHT22;12772;49.794;10.024;2022-12-10T15:30:36;4.40;53.50
24636;DHT22;12772;49.794;10.024;2022-12-10T15:34:47;4.60;53.90
24636;DHT22;12772;49.794;10.024;2022-12-10T15:38:50;4.30;53.60
24636;DHT22;12772;49.794;10.024;2022-12-10T15:43:09;4.00;53.40
24636;DHT22;12772;49.794;10.024;2022-12-10T15:51:21;4.60;54.30
24636;DHT22;12772;49.794;10.024;2022-12-10T15:55:23;4.40;53.80
24636;DHT22;12772;49.794;10.024;2022-12-10T15:59:25;4.50;54.00
24636;DHT22;12772;49.794;10.024;2022-12-10T16:03:28;4.60;54.30
24636;DHT22;12772;49.794;10.024;2022-12-10T16:07:30;4.50;53.70
24636;DHT22;12772;49.794;10.024;2022-12-10T16:11:33;4.50;53.00
24636;DHT22;12772;49.794;10.024;2022-12-10T16:15:43;4.40;52.30
24636;DHT22;12772;49.794;10.024;2022-12-10T16:19:46;4.40;52.30
24636;DHT22;12772;49.794;10.024;2022-12-10T16:23:48;4.30;52.20
24636;DHT22;12772;49.794;10.024;2022-12-10T16:27:51;4.40;52.30
24636;DHT22;12772;49.794;10.024;2022-12-10T16:31:53;4.50;52.40
24636;DHT22;12772;49.794;10.024;2022-12-10T16:35:56;4.00;51.90
24636;DHT22;12772;49.794;10.024;2022-12-10T16:39:58;4.50;52.40
24636;DHT22;12772;49.794;10.024;2022-12-10T16:44:00;4.30;52.20
24636;DHT22;12772;49.794;10.024;2022-12-10T16:48:03;4.10;52.00
24636;DHT22;12772;49.794;10.024;2022-12-10T16:52:05;4.40;52.30
24636;DHT22;12772;49.794;10.024;2022-12-10T16:56:09;4.50;52.40
24636;DHT22;12772;49.794;10.024;2022-12-10T17:00:14;4.00;51.90
24636;DHT22;12772;49.794;10.024;2022-12-10T17:04:16;4.50;51.50
24636;DHT22;12772;49.794;10.024;2022-12-10T17:08:19;4.10;50.80
24636;DHT22;12772;49.794;10.024;2022-12-10T17:12:22;4.60;51.10
24636;DHT22;12772;49.794;10.024;2022-12-10T17:16:24;4.50;51.00
24636;DHT22;12772;49.794;10.024;2022-12-10T17:20:26;4.40;50.70
24636;DHT22;12772;49.794;10.024;2022-12-10T17:24:28;4.50;50.80
24636;DHT22;12772;49.794;10.024;2022-12-10T17:28:31;3.90;50.50
24636;DHT22;12772;49.794;10.024;2022-12-10T17:32:34;4.40;51.00
24636;DHT22;12772;49.794;10.024;2022-12-10T17:36:36;4.30;50.50
24636;DHT22;12772;49.794;10.024;2022-12-10T17:40:38;4.30;50.30
24636;DHT22;12772;49.794;10.024;2022-12-10T17:44:40;4.40;50.50
24636;DHT22;12772;49.794;10.024;2022-12-10T17:48:42;4.00;50.20
24636;DHT22;12772;49.794;10.024;2022-12-10T17:52:44;4.30;50.50
24636;DHT22;12772;49.794;10.024;2022-12-10T17:56:46;4.20;50.30
24636;DHT22;12772;49.794;10.024;2022-12-10T18:00:48;4.20;50.20
24636;DHT22;12772;49.794;10.024;2022-12-10T18:04:50;4.40;50.30
24636;DHT22;12772;49.794;10.024;2022-12-10T18:08:54;4.30;50.00
24636;DHT22;12772;49.794;10.024;2022-12-10T18:12:57;4.20;49.50
24636;DHT22;12772;49.794;10.024;2022-12-10T18:17:00;4.10;49.30
24636;DHT22;12772;49.794;10.024;2022-12-10T18:21:02;4.10;49.30
24636;DHT22;12772;49.794;10.024;2022-12-10T18:25:05;4.00;49.80
24636;DHT22;12772;49.794;10.024;2022-12-10T18:29:08;4.20;49.50
24636;DHT22;12772;49.794;10.024;2022-12-10T18:33:15;3.60;48.90
24636;DHT22;12772;49.794;10.024;2022-12-10T18:37:17;3.60;48.80
24636;DHT22;12772;49.794;10.024;2022-12-10T18:41:19;4.00;49.20
24636;DHT22;12772;49.794;10.024;2022-12-10T18:45:21;3.30;48.50
24636;DHT22;12772;49.794;10.024;2022-12-10T18:49:24;3.80;49.10
24636;DHT22;12772;49.794;10.024;2022-12-10T18:53:28;3.80;49.20
24636;DHT22;12772;49.794;10.024;2022-12-10T18:57:30;3.30;48.70
24636;DHT22;12772;49.794;10.024;2022-12-10T19:01:32;3.70;49.30
24636;DHT22;12772;49.794;10.024;2022-12-10T19:05:34;3.80;49.50
24636;DHT22;12772;49.794;10.024;2022-12-10T19:09:36;3.70;49.60
24636;DHT22;12772;49.794;10.024;2022-12-10T19:13:40;3.90;50.00
24636;DHT22;12772;49.794;10.024;2022-12-10T19:17:42;3.80;50.00
24636;DHT22;12772;49.794;10.024;2022-12-10T19:21:45;3.70;50.10
24636;DHT22;12772;49.794;10.024;2022-12-10T19:25:47;3.20;49.80
24636;DHT22;12772;49.794;10.024;2022-12-10T19:29:49;3.40;50.10
24636;DHT22;12772;49.794;10.024;2022-12-10T19:33:51;3.90;50.60
24636;DHT22;12772;49.794;10.024;2022-12-10T19:37:54;3.30;50.20
24636;DHT22;12772;49.794;10.024;2022-12-10T19:41:56;3.70;50.90
24636;DHT22;12772;49.794;10.024;2022-12-10T19:45:58;3.40;50.90
24636;DHT22;12772;49.794;10.024;2022-12-10T19:50:01;3.70;51.30
24636;DHT22;12772;49.794;10.024;2022-12-10T19:54:03;3.40;51.30
24636;DHT22;12772;49.794;10.024;2022-12-10T19:58:05;3.20;51.10
24636;DHT22;12772;49.794;10.024;2022-12-10T20:02:08;3.70;51.60
24636;DHT22;12772;49.794;10.024;2022-12-10T20:06:20;3.80;51.70
24636;DHT22;12772;49.794;10.024;2022-12-10T20:10:28;3.80;51.80
24636;DHT22;12772;49.794;10.024;2022-12-10T20:14:31;3.50;51.40
24636;DHT22;12772;49.794;10.024;2022-12-10T20:18:33;4.00;51.90
24636;DHT22;12772;49.794;10.024;2022-12-10T20:22:35;3.60;51.50
24636;DHT22;12772;49.794;10.024;2022-12-10T20:26:39;3.80;51.80
24636;DHT22;12772;49.794;10.024;2022-12-10T20:30:41;3.30;51.20
24636;DHT22;12772;49.794;10.024;2022-12-10T20:34:43;3.60;51.50
24636;DHT22;12772;49.794;10.024;2022-12-10T20:38:46;3.50;51.40
24636;DHT22;12772;49.794;10.024;2022-12-10T20:42:48;3.60;51.50
24636;DHT22;12772;49.794;10.024;2022-12-10T20:46:51;3.60;52.20
24636;DHT22;12772;49.794;10.024;2022-12-10T20:50:53;3.80;51.70
24636;DHT22;12772;49.794;10.024;2022-12-10T20:54:56;3.90;51.80
24636;DHT22;12772;49.794;10.024;2022-12-10T20:58:58;3.50;51.40
24636;DHT22;12772;49.794;10.024;2022-12-10T21:03:00;3.40;51.30
24636;DHT22;12772;49.794;10.024;2022-12-10T21:07:02;3.50;51.40
24636;DHT22;12772;49.794;10.024;2022-12-10T21:11:04;3.80;51.70
24636;DHT22;12772;49.794;10.024;2022-12-10T21:15:06;3.80;51.70
24636;DHT22;12772;49.794;10.024;2022-12-10T21:19:11;3.70;51.60
24636;DHT22;12772;49.794;10.024;2022-12-10T21:23:16;3.60;51.50
24636;DHT22;12772;49.794;10.024;2022-12-10T21:27:19;3.90;52.50
24636;DHT22;12772;49.794;10.024;2022-12-10T21:31:23;3.70;51.60
24636;DHT22;12772;49.794;10.024;2022-12-10T21:35:26;3.30;51.20
24636;DHT22;12772;49.794;10.024;2022-12-10T21:39:28;3.90;51.80
24636;DHT22;12772;49.794;10.024;2022-12-10T21:43:30;3.80;51.70
24636;DHT22;12772;49.794;10.024;2022-12-10T21:47:32;3.30;51.20
24636;DHT22;12772;49.794;10.024;2022-12-10T21:51:34;3.50;51.40
24636;DHT22;12772;49.794;10.024;2022-12-10T21:55:38;3.30;51.20
24636;DHT22;12772;49.794;10.024;2022-12-10T21:59:42;3.60;51.50
24636;DHT22;12772;49.794;10.024;2022-12-10T22:03:44;3.60;51.50
24636;DHT22;12772;49.794;10.024;2022-12-10T22:07:46;3.10;51.00
24636;DHT22;12772;49.794;10.024;2022-12-10T22:11:48;3.10;51.00
24636;DHT22;12772;49.794;10.024;2022-12-10T22:15:50;3.70;51.60
24636;DHT22;12772;49.794;10.024;2022-12-10T22:19:53;3.10;51.00
24636;DHT22;12772;49.794;10.024;2022-12-10T22:23:55;3.20;51.10
24636;DHT22;12772;49.794;10.024;2022-12-10T22:27:57;3.20;51.10
24636;DHT22;12772;49.794;10.024;2022-12-10T22:31:59;3.70;51.60
24636;DHT22;12772;49.794;10.024;2022-12-10T22:36:01;3.00;50.90
24636;DHT22;12772;49.794;10.024;2022-12-10T22:40:05;3.30;51.40
24636;DHT22;12772;49.794;10.024;2022-12-10T22:44:08;3.40;51.80
24636;DHT22;12772;49.794;10.024;2022-12-10T22:48:10;3.00;51.60
24636;DHT22;12772;49.794;10.024;2022-12-10T22:52:12;2.80;51.40
24636;DHT22;12772;49.794;10.024;2022-12-10T22:56:15;3.20;51.80
24636;DHT22;12772;49.794;10.024;2022-12-10T23:00:18;3.20;51.80
24636;DHT22;12772;49.794;10.024;2022-12-10T23:04:22;2.70;51.00
24636;DHT22;12772;49.794;10.024;2022-12-10T23:08:24;2.60;50.90
24636;DHT22;12772;49.794;10.024;2022-12-10T23:12:28;3.00;51.30
24636;DHT22;12772;49.794;10.024;2022-12-10T23:16:47;3.20;51.60
24636;DHT22;12772;49.794;10.024;2022-12-10T23:20:50;2.90;51.40
24636;DHT22;12772;49.794;10.024;2022-12-10T23:24:52;3.10;51.50
24636;DHT22;12772;49.794;10.024;2022-12-10T23:28:54;2.90;51.50
24636;DHT22;12772;49.794;10.024;2022-12-10T23:32:56;3.10;51.40
24636;DHT22;12772;49.794;10.024;2022-12-10T23:36:58;2.80;51.30
24636;DHT22;12772;49.794;10.024;2022-12-10T23:41:07;3.00;51.30
24636;DHT22;12772;49.794;10.024;2022-12-10T23:45:13;2.80;50.70
24636;DHT22;12772;49.794;10.024;2022-12-10T23:49:15;2.30;50.20
24636;DHT22;12772;49.794;10.024;2022-12-10T23:53:17;2.70;50.50
24636;DHT22;12772;49.794;10.024;2022-12-10T23:57:19;2.30;50.20
